createdAt,value
2022-12-11T00:00:16.478Z,88.67
2022-12-11T00:01:16.476Z,88.46
2022-12-11T00:02:16.554Z,88.67
2022-12-11T00:03:16.591Z,88.98
2022-12-11T00:04:16.471Z,89.19
2022-12-11T00:05:16.433Z,88.98
2022-12-11T00:06:16.405Z,88.35
2022-12-11T00:07:16.398Z,88.35
2022-12-11T00:08:16.467Z,88.56
2022-12-11T00:09:16.437Z,88.46
2022-12-11T00:10:16.368Z,88.14
2022-12-11T00:11:16.389Z,88.04
2022-12-11T00:12:16.389Z,88.24
2022-12-11T00:13:16.341Z,88.14
2022-12-11T00:14:16.379Z,88.10
2022-12-11T00:15:16.358Z,87.99
2022-12-11T00:16:16.361Z,87.99
2022-12-11T00:17:16.292Z,87.79
2022-12-11T00:18:16.299Z,87.58
2022-12-11T00:19:16.287Z,87.47
2022-12-11T00:20:16.323Z,87.26
2022-12-11T00:21:16.257Z,87.37
2022-12-11T00:22:16.278Z,87.16
2022-12-11T00:23:16.283Z,86.95
2022-12-11T00:24:17.540Z,86.80
2022-12-11T00:25:16.232Z,86.53
2022-12-11T00:26:16.258Z,86.85
2022-12-11T00:27:16.214Z,86.95
2022-12-11T00:28:16.193Z,86.95
2022-12-11T00:29:16.202Z,87.16
2022-12-11T00:30:16.158Z,87.05
2022-12-11T00:31:16.129Z,86.85
2022-12-11T00:32:16.205Z,87.16
2022-12-11T00:33:16.150Z,87.47
2022-12-11T00:34:16.149Z,87.41
2022-12-11T00:35:16.130Z,87.41
2022-12-11T00:36:16.110Z,87.72
2022-12-11T00:37:16.163Z,87.72
2022-12-11T00:38:16.151Z,87.51
2022-12-11T00:39:16.089Z,87.20
2022-12-11T00:40:16.073Z,87.30
2022-12-11T00:41:16.070Z,87.51
2022-12-11T00:42:16.096Z,87.83
2022-12-11T00:43:16.054Z,88.04
2022-12-11T00:44:16.041Z,87.68
2022-12-11T00:45:16.044Z,86.95
2022-12-11T00:46:16.062Z,87.05
2022-12-11T00:47:16.052Z,87.26
2022-12-11T00:48:15.991Z,87.47
2022-12-11T00:49:15.998Z,87.37
2022-12-11T00:50:16.010Z,87.37
2022-12-11T00:51:15.980Z,86.95
2022-12-11T00:52:15.971Z,87.05
2022-12-11T00:53:16.001Z,87.37
2022-12-11T00:54:16.761Z,87.16
2022-12-11T00:55:15.921Z,87.05
2022-12-11T00:56:15.921Z,87.16
2022-12-11T00:57:15.969Z,87.16
2022-12-11T00:58:15.929Z,87.12
2022-12-11T00:59:15.881Z,86.80
2022-12-11T01:00:15.871Z,87.01
2022-12-11T01:01:15.905Z,86.70
2022-12-11T01:02:15.884Z,86.70
2022-12-11T01:03:15.939Z,86.80
2022-12-11T01:04:15.831Z,86.70
2022-12-11T01:05:15.844Z,86.60
2022-12-11T01:06:15.831Z,86.49
2022-12-11T01:07:15.852Z,86.63
2022-12-11T01:08:15.840Z,87.05
2022-12-11T01:09:15.797Z,87.37
2022-12-11T01:10:15.801Z,87.47
2022-12-11T01:11:15.760Z,87.47
2022-12-11T01:12:15.777Z,87.26
2022-12-11T01:13:15.796Z,87.47
2022-12-11T01:14:15.740Z,87.58
2022-12-11T01:15:15.723Z,87.89
2022-12-11T01:16:15.809Z,87.37
2022-12-11T01:17:15.723Z,87.58
2022-12-11T01:18:15.683Z,87.16
2022-12-11T01:19:16.246Z,87.68
2022-12-11T01:20:15.696Z,87.68
2022-12-11T01:21:15.689Z,87.68
2022-12-11T01:22:15.671Z,87.16
2022-12-11T01:23:15.678Z,87.16
2022-12-11T01:24:17.513Z,87.16
2022-12-11T01:25:15.693Z,86.88
2022-12-11T01:26:15.632Z,87.41
2022-12-11T01:27:15.641Z,87.83
2022-12-11T01:28:15.614Z,87.89
2022-12-11T01:29:15.592Z,87.89
2022-12-11T01:30:15.590Z,87.89
2022-12-11T01:31:15.607Z,87.89
2022-12-11T01:32:15.563Z,87.68
2022-12-11T01:33:15.546Z,87.54
2022-12-11T01:34:15.555Z,87.33
2022-12-11T01:35:15.537Z,86.80
2022-12-11T01:36:15.543Z,86.49
2022-12-11T01:37:15.533Z,86.70
2022-12-11T01:38:15.506Z,86.91
2022-12-11T01:39:15.504Z,87.26
2022-12-11T01:40:15.474Z,87.23
2022-12-11T01:41:15.474Z,87.23
2022-12-11T01:42:15.486Z,87.12
2022-12-11T01:43:15.435Z,87.33
2022-12-11T01:44:15.458Z,87.23
2022-12-11T01:45:15.458Z,87.26
2022-12-11T01:46:15.477Z,87.79
2022-12-11T01:47:15.392Z,87.99
2022-12-11T01:48:15.382Z,88.10
2022-12-11T01:49:15.396Z,88.10
2022-12-11T01:50:15.378Z,87.99
2022-12-11T01:51:15.419Z,87.68
2022-12-11T01:52:15.365Z,87.68
2022-12-11T01:53:15.344Z,87.83
2022-12-11T01:54:16.557Z,88.14
2022-12-11T01:55:15.357Z,88.35
2022-12-11T01:56:15.330Z,88.21
2022-12-11T01:57:15.355Z,88.21
2022-12-11T01:58:15.308Z,88.21
2022-12-11T01:59:15.287Z,87.89
2022-12-11T02:00:15.302Z,88.04
2022-12-11T02:01:15.325Z,88.46
2022-12-11T02:02:15.284Z,88.77
2022-12-11T02:03:15.265Z,88.87
2022-12-11T02:04:15.246Z,88.98
2022-12-11T02:05:15.275Z,89.19
2022-12-11T02:06:15.217Z,89.29
2022-12-11T02:07:15.226Z,89.61
2022-12-11T02:08:15.276Z,89.92
2022-12-11T02:09:15.260Z,89.61
2022-12-11T02:10:15.250Z,89.29
2022-12-11T02:11:15.166Z,89.40
2022-12-11T02:12:15.147Z,89.19
2022-12-11T02:13:15.157Z,88.98
2022-12-11T02:14:15.261Z,89.19
2022-12-11T02:15:15.181Z,89.29
2022-12-11T02:16:15.158Z,89.40
2022-12-11T02:17:15.115Z,89.19
2022-12-11T02:18:15.085Z,89.04
2022-12-11T02:19:15.076Z,88.67
2022-12-11T02:20:15.076Z,88.46
2022-12-11T02:21:15.077Z,88.24
2022-12-11T02:22:15.059Z,88.87
2022-12-11T02:23:15.029Z,89.09
2022-12-11T02:24:15.254Z,88.98
2022-12-11T02:25:15.040Z,88.87
2022-12-11T02:26:15.038Z,88.87
2022-12-11T02:27:15.021Z,88.98
2022-12-11T02:28:14.967Z,89.29
2022-12-11T02:29:14.969Z,88.87
2022-12-11T02:30:14.968Z,88.98
2022-12-11T02:31:15.076Z,89.19
2022-12-11T02:32:14.960Z,89.19
2022-12-11T02:33:14.928Z,89.09
2022-12-11T02:34:14.947Z,88.87
2022-12-11T02:35:14.911Z,88.77
2022-12-11T02:36:14.921Z,88.98
2022-12-11T02:37:14.911Z,88.98
2022-12-11T02:38:14.899Z,88.67
2022-12-11T02:39:14.897Z,88.98
2022-12-11T02:40:14.856Z,89.44
2022-12-11T02:41:14.888Z,89.86
2022-12-11T02:42:14.911Z,90.17
2022-12-11T02:43:14.851Z,90.03
2022-12-11T02:44:14.828Z,90.13
2022-12-11T02:45:14.818Z,90.03
2022-12-11T02:46:14.897Z,89.82
2022-12-11T02:47:14.819Z,89.82
2022-12-11T02:48:14.778Z,90.03
2022-12-11T02:49:14.789Z,90.13
2022-12-11T02:50:14.779Z,90.13
2022-12-11T02:51:14.786Z,90.34
2022-12-11T02:52:14.770Z,90.45
2022-12-11T02:53:14.738Z,90.30
2022-12-11T02:54:14.962Z,89.92
2022-12-11T02:55:14.710Z,89.92
2022-12-11T02:56:14.719Z,90.23
2022-12-11T02:57:14.724Z,90.66
2022-12-11T02:58:14.742Z,90.87
2022-12-11T02:59:14.688Z,90.76
2022-12-11T03:00:14.671Z,90.87
2022-12-11T03:01:14.719Z,91.08
2022-12-11T03:02:14.713Z,91.08
2022-12-11T03:03:14.628Z,91.18
2022-12-11T03:04:14.619Z,91.28
2022-12-11T03:05:14.642Z,91.08
2022-12-11T03:06:14.643Z,91.18
2022-12-11T03:07:14.649Z,91.28
2022-12-11T03:08:14.643Z,91.39
2022-12-11T03:09:14.600Z,91.50
2022-12-11T03:10:14.582Z,91.71
2022-12-11T03:11:14.591Z,91.71
2022-12-11T03:12:14.569Z,91.50
2022-12-11T03:13:14.585Z,91.75
2022-12-11T03:14:14.533Z,91.85
2022-12-11T03:15:14.552Z,92.06
2022-12-11T03:16:14.579Z,92.16
2022-12-11T03:17:14.740Z,91.96
2022-12-11T03:18:14.509Z,92.06
2022-12-11T03:19:14.502Z,91.96
2022-12-11T03:20:14.462Z,92.16
2022-12-11T03:21:14.443Z,92.48
2022-12-11T03:22:14.464Z,92.69
2022-12-11T03:23:14.454Z,92.80
2022-12-11T03:24:14.753Z,92.65
2022-12-11T03:25:14.422Z,92.44
2022-12-11T03:26:14.412Z,92.44
2022-12-11T03:27:14.409Z,92.02
2022-12-11T03:28:14.391Z,92.06
2022-12-11T03:29:14.392Z,92.27
2022-12-11T03:30:14.366Z,92.48
2022-12-11T03:31:14.633Z,92.38
2022-12-11T03:32:14.375Z,92.58
2022-12-11T03:33:14.361Z,92.90
2022-12-11T03:34:14.345Z,92.90
2022-12-11T03:35:14.644Z,93.11
2022-12-11T03:36:14.322Z,93.01
2022-12-11T03:37:14.324Z,92.90
2022-12-11T03:38:14.324Z,92.90
2022-12-11T03:39:14.281Z,92.80
2022-12-11T03:40:14.259Z,92.80
2022-12-11T03:41:14.262Z,92.90
2022-12-11T03:42:14.254Z,92.80
2022-12-11T03:43:14.273Z,93.01
2022-12-11T03:44:14.234Z,93.01
2022-12-11T03:45:14.337Z,93.32
2022-12-11T03:46:14.332Z,93.21
2022-12-11T03:47:14.311Z,93.32
2022-12-11T03:48:14.460Z,93.63
2022-12-11T03:49:14.296Z,93.84
2022-12-11T03:50:14.326Z,93.53
2022-12-11T03:51:14.244Z,93.32
2022-12-11T03:52:14.171Z,93.32
2022-12-11T03:53:14.175Z,93.01
2022-12-11T03:54:15.317Z,93.11
2022-12-11T03:55:14.107Z,93.11
2022-12-11T03:56:14.133Z,93.21
2022-12-11T03:57:14.178Z,93.21
2022-12-11T03:58:14.126Z,93.11
2022-12-11T03:59:14.065Z,93.21
2022-12-11T04:00:14.065Z,93.32
2022-12-11T04:01:14.082Z,93.21
2022-12-11T04:02:14.076Z,93.21
2022-12-11T04:03:14.563Z,93.21
2022-12-11T04:04:14.060Z,93.01
2022-12-11T04:05:14.289Z,93.11
2022-12-11T04:06:14.018Z,93.32
2022-12-11T04:07:14.013Z,93.11
2022-12-11T04:08:14.072Z,93.01
2022-12-11T04:09:14.013Z,93.21
2022-12-11T04:10:13.979Z,93.32
2022-12-11T04:11:13.979Z,93.01
2022-12-11T04:12:13.943Z,93.01
2022-12-11T04:13:13.966Z,93.11
2022-12-11T04:14:13.926Z,93.11
2022-12-11T04:15:13.925Z,93.21
2022-12-11T04:16:13.966Z,93.11
2022-12-11T04:17:13.918Z,93.32
2022-12-11T04:18:13.885Z,92.80
2022-12-11T04:19:13.914Z,92.58
2022-12-11T04:20:13.887Z,92.69
2022-12-11T04:21:13.847Z,92.69
2022-12-11T04:22:13.855Z,92.58
2022-12-11T04:23:13.837Z,92.80
2022-12-11T04:24:14.965Z,92.80
2022-12-11T04:25:14.032Z,92.69
2022-12-11T04:26:13.821Z,92.58
2022-12-11T04:27:13.797Z,92.69
2022-12-11T04:28:13.796Z,92.38
2022-12-11T04:29:13.838Z,92.38
2022-12-11T04:30:13.755Z,92.38
2022-12-11T04:31:13.773Z,92.16
2022-12-11T04:32:13.756Z,92.16
2022-12-11T04:33:13.741Z,92.06
2022-12-11T04:34:13.715Z,92.16
2022-12-11T04:35:13.881Z,92.58
2022-12-11T04:36:13.706Z,92.48
2022-12-11T04:37:13.705Z,92.16
2022-12-11T04:38:13.705Z,92.16
2022-12-11T04:39:13.706Z,92.48
2022-12-11T04:40:13.692Z,92.69
2022-12-11T04:41:13.671Z,92.69
2022-12-11T04:42:13.668Z,92.48
2022-12-11T04:43:13.648Z,92.06
2022-12-11T04:44:13.638Z,91.96
2022-12-11T04:45:13.880Z,92.16
2022-12-11T04:46:13.633Z,92.16
2022-12-11T04:47:13.596Z,92.27
2022-12-11T04:48:13.610Z,92.38
2022-12-11T04:49:13.596Z,92.69
2022-12-11T04:50:13.577Z,92.80
2022-12-11T04:51:13.560Z,92.69
2022-12-11T04:52:13.537Z,92.90
2022-12-11T04:53:13.552Z,93.01
2022-12-11T04:54:13.626Z,93.21
2022-12-11T04:55:13.856Z,93.11
2022-12-11T04:56:13.526Z,93.11
2022-12-11T04:57:13.517Z,93.11
2022-12-11T04:58:13.518Z,93.01
2022-12-11T04:59:13.498Z,93.11
2022-12-11T05:00:13.478Z,93.32
2022-12-11T05:01:13.550Z,93.43
2022-12-11T05:02:13.471Z,93.32
2022-12-11T05:03:13.526Z,93.11
2022-12-11T05:04:13.440Z,93.43
2022-12-11T05:05:13.780Z,93.43
2022-12-11T05:06:13.428Z,93.53
2022-12-11T05:07:13.401Z,93.53
2022-12-11T05:08:13.401Z,93.21
2022-12-11T05:09:13.379Z,93.21
2022-12-11T05:10:13.440Z,93.63
2022-12-11T05:11:13.370Z,93.95
2022-12-11T05:12:13.349Z,93.63
2022-12-11T05:13:13.348Z,93.74
2022-12-11T05:14:13.341Z,93.74
2022-12-11T05:15:13.627Z,93.95
2022-12-11T05:16:13.404Z,94.06
2022-12-11T05:17:13.291Z,94.06
2022-12-11T05:18:13.280Z,94.16
2022-12-11T05:19:13.350Z,94.06
2022-12-11T05:20:13.293Z,94.06
2022-12-11T05:21:13.311Z,93.43
2022-12-11T05:22:13.249Z,93.53
2022-12-11T05:23:13.251Z,93.53
2022-12-11T05:24:14.713Z,93.74
2022-12-11T05:25:13.481Z,93.95
2022-12-11T05:26:13.199Z,94.26
2022-12-11T05:27:13.199Z,94.16
2022-12-11T05:28:13.220Z,94.06
2022-12-11T05:29:13.191Z,94.31
2022-12-11T05:30:13.187Z,94.51
2022-12-11T05:31:13.201Z,94.62
2022-12-11T05:32:13.166Z,94.68
2022-12-11T05:33:13.161Z,94.47
2022-12-11T05:34:13.128Z,94.37
2022-12-11T05:35:13.406Z,94.16
2022-12-11T05:36:13.121Z,94.47
2022-12-11T05:37:13.099Z,94.58
2022-12-11T05:38:13.101Z,94.47
2022-12-11T05:39:13.109Z,94.37
2022-12-11T05:40:13.132Z,94.16
2022-12-11T05:41:13.099Z,94.16
2022-12-11T05:42:13.061Z,94.16
2022-12-11T05:43:13.051Z,94.41
2022-12-11T05:44:13.023Z,94.58
2022-12-11T05:45:13.325Z,94.41
2022-12-11T05:46:13.088Z,94.51
2022-12-11T05:47:13.010Z,94.73
2022-12-11T05:48:13.000Z,95.04
2022-12-11T05:49:12.981Z,95.15
2022-12-11T05:50:13.109Z,95.36
2022-12-11T05:51:12.953Z,95.61
2022-12-11T05:52:12.996Z,95.82
2022-12-11T05:53:12.980Z,95.72
2022-12-11T05:54:13.141Z,95.82
2022-12-11T05:55:13.139Z,95.72
2022-12-11T05:56:12.942Z,95.72
2022-12-11T05:57:12.929Z,95.67
2022-12-11T05:58:12.903Z,95.67
2022-12-11T05:59:12.893Z,95.67
2022-12-11T06:00:12.862Z,95.29
2022-12-11T06:01:12.873Z,95.29
2022-12-11T06:02:12.922Z,95.50
2022-12-11T06:03:12.942Z,95.56
2022-12-11T06:04:12.823Z,95.46
2022-12-11T06:05:13.033Z,94.83
2022-12-11T06:06:12.822Z,94.41
2022-12-11T06:07:12.833Z,94.20
2022-12-11T06:08:12.877Z,94.10
2022-12-11T06:09:12.768Z,94.10
2022-12-11T06:10:12.782Z,94.31
2022-12-11T06:11:12.775Z,93.99
2022-12-11T06:12:12.773Z,93.47
2022-12-11T06:13:12.744Z,92.94
2022-12-11T06:14:12.748Z,91.79
2022-12-11T06:15:12.964Z,91.27
2022-12-11T06:16:12.718Z,91.30
2022-12-11T06:17:12.732Z,91.52
2022-12-11T06:18:12.732Z,91.09
2022-12-11T06:19:12.683Z,91.05
2022-12-11T06:20:12.663Z,91.27
2022-12-11T06:21:12.651Z,90.25
2022-12-11T06:22:12.671Z,90.78
2022-12-11T06:23:12.694Z,90.57
2022-12-11T06:24:12.654Z,90.99
2022-12-11T06:25:12.920Z,91.09
2022-12-11T06:26:12.644Z,91.09
2022-12-11T06:27:12.656Z,90.99
2022-12-11T06:28:12.613Z,90.57
2022-12-11T06:29:13.244Z,90.25
2022-12-11T06:30:12.531Z,90.36
2022-12-11T06:31:12.610Z,90.57
2022-12-11T06:32:12.574Z,90.89
2022-12-11T06:33:12.554Z,90.89
2022-12-11T06:34:12.508Z,90.78
2022-12-11T06:35:12.938Z,91.09
2022-12-11T06:36:12.456Z,91.09
2022-12-11T06:37:12.475Z,91.09
2022-12-11T06:38:12.464Z,91.20
2022-12-11T06:39:12.434Z,91.16
2022-12-11T06:40:12.427Z,90.84
2022-12-11T06:41:12.441Z,90.64
2022-12-11T06:42:12.397Z,90.42
2022-12-11T06:43:12.403Z,90.42
2022-12-11T06:44:12.388Z,90.42
2022-12-11T06:45:12.641Z,89.90
2022-12-11T06:46:12.409Z,89.94
2022-12-11T06:47:12.375Z,89.90
2022-12-11T06:48:12.364Z,89.84
2022-12-11T06:49:12.314Z,90.05
2022-12-11T06:50:12.331Z,90.15
2022-12-11T06:51:12.303Z,89.52
2022-12-11T06:52:18.003Z,89.52
2022-12-11T06:53:13.299Z,89.31
2022-12-11T06:54:12.266Z,89.42
2022-12-11T06:55:12.550Z,89.00
2022-12-11T06:56:12.245Z,89.00
2022-12-11T06:57:12.257Z,89.00
2022-12-11T06:58:12.256Z,89.00
2022-12-11T06:59:12.236Z,88.68
2022-12-11T07:00:12.238Z,88.79
2022-12-11T07:01:12.243Z,88.79
2022-12-11T07:02:12.269Z,88.79
2022-12-11T07:03:12.202Z,88.79
2022-12-11T07:04:12.184Z,88.79
2022-12-11T07:05:12.406Z,88.26
2022-12-11T07:06:12.167Z,88.16
2022-12-11T07:07:12.166Z,88.05
2022-12-11T07:08:12.229Z,88.37
2022-12-11T07:09:12.117Z,88.37
2022-12-11T07:10:12.139Z,88.47
2022-12-11T07:11:12.115Z,88.57
2022-12-11T07:12:12.097Z,88.47
2022-12-11T07:13:12.095Z,88.82
2022-12-11T07:14:12.071Z,89.56
2022-12-11T07:15:12.519Z,89.67
2022-12-11T07:16:12.131Z,89.77
2022-12-11T07:17:12.061Z,89.77
2022-12-11T07:18:12.035Z,89.84
2022-12-11T07:19:12.058Z,89.73
2022-12-11T07:20:12.026Z,89.52
2022-12-11T07:21:12.017Z,89.52
2022-12-11T07:22:12.007Z,88.47
2022-12-11T07:23:11.975Z,88.79
2022-12-11T07:24:11.998Z,89.00
2022-12-11T07:25:12.349Z,89.31
2022-12-11T07:26:11.948Z,89.31
2022-12-11T07:27:11.957Z,87.95
2022-12-11T07:28:15.240Z,87.63
2022-12-11T07:29:11.950Z,86.72
2022-12-11T07:30:11.934Z,86.83
2022-12-11T07:31:11.897Z,86.41
2022-12-11T07:32:12.040Z,86.03
2022-12-11T07:33:11.920Z,85.93
2022-12-11T07:34:11.871Z,85.61
2022-12-11T07:35:12.126Z,85.50
2022-12-11T07:36:11.888Z,85.40
2022-12-11T07:37:11.895Z,85.40
2022-12-11T07:38:11.867Z,85.19
2022-12-11T07:39:11.876Z,85.19
2022-12-11T07:40:11.838Z,85.05
2022-12-11T07:41:11.810Z,84.52
2022-12-11T07:42:11.792Z,84.52
2022-12-11T07:43:11.795Z,84.42
2022-12-11T07:44:11.796Z,84.10
2022-12-11T07:45:12.128Z,84.31
2022-12-11T07:46:11.794Z,84.63
2022-12-11T07:47:11.758Z,84.52
2022-12-11T07:48:11.760Z,84.42
2022-12-11T07:49:11.739Z,84.73
2022-12-11T07:50:11.728Z,84.45
2022-12-11T07:51:11.718Z,84.56
2022-12-11T07:52:11.685Z,84.88
2022-12-11T07:53:11.842Z,84.98
2022-12-11T07:54:11.684Z,84.88
2022-12-11T07:55:11.935Z,85.08
2022-12-11T07:56:11.758Z,84.98
2022-12-11T07:57:14.070Z,84.88
2022-12-11T07:58:11.659Z,85.36
2022-12-11T07:59:11.653Z,85.99
2022-12-11T08:00:11.640Z,85.47
2022-12-11T08:01:11.650Z,84.84
2022-12-11T08:02:11.748Z,84.84
2022-12-11T08:03:11.629Z,84.48
2022-12-11T08:04:11.594Z,83.89
2022-12-11T08:05:11.869Z,83.89
2022-12-11T08:06:11.551Z,84.03
2022-12-11T08:07:11.567Z,84.56
2022-12-11T08:08:11.645Z,84.63
2022-12-11T08:09:15.955Z,84.84
2022-12-11T08:10:12.500Z,84.67
2022-12-11T08:11:11.544Z,84.67
2022-12-11T08:12:11.511Z,84.88
2022-12-11T08:13:11.501Z,85.40
2022-12-11T08:14:11.492Z,85.30
2022-12-11T08:15:11.725Z,85.25
2022-12-11T08:16:11.460Z,85.25
2022-12-11T08:17:11.462Z,85.19
2022-12-11T08:18:11.481Z,85.08
2022-12-11T08:19:11.461Z,85.30
2022-12-11T08:20:11.440Z,85.40
2022-12-11T08:21:11.401Z,85.19
2022-12-11T08:22:11.400Z,85.30
2022-12-11T08:23:11.402Z,85.57
2022-12-11T08:24:11.401Z,85.25
2022-12-11T08:25:11.673Z,84.73
2022-12-11T08:26:11.369Z,84.63
2022-12-11T08:27:11.366Z,84.52
2022-12-11T08:28:11.420Z,84.42
2022-12-11T08:29:11.331Z,84.63
2022-12-11T08:30:11.329Z,84.52
2022-12-11T08:31:11.353Z,84.73
2022-12-11T08:32:12.559Z,84.88
2022-12-11T08:33:11.332Z,85.50
2022-12-11T08:34:11.312Z,85.50
2022-12-11T08:35:11.685Z,85.50
2022-12-11T08:36:11.280Z,85.30
2022-12-11T08:37:11.274Z,85.61
2022-12-11T08:38:11.292Z,85.68
2022-12-11T08:39:11.252Z,85.05
2022-12-11T08:40:11.248Z,85.05
2022-12-11T08:41:11.228Z,84.88
2022-12-11T08:42:11.238Z,84.77
2022-12-11T08:43:11.205Z,84.88
2022-12-11T08:44:16.042Z,85.08
2022-12-11T08:45:12.441Z,84.88
2022-12-11T08:46:11.208Z,85.19
2022-12-11T08:47:11.164Z,85.30
2022-12-11T08:48:11.168Z,85.15
2022-12-11T08:49:11.144Z,84.94
2022-12-11T08:50:11.163Z,85.05
2022-12-11T08:51:11.144Z,84.63
2022-12-11T08:52:11.129Z,84.94
2022-12-11T08:53:11.121Z,84.84
2022-12-11T08:54:11.107Z,85.15
2022-12-11T08:55:11.324Z,85.25
2022-12-11T08:56:11.094Z,85.05
2022-12-11T08:57:11.132Z,85.19
2022-12-11T08:58:11.103Z,85.30
2022-12-11T08:59:11.033Z,85.05
2022-12-11T09:00:11.072Z,85.15
2022-12-11T09:01:11.081Z,85.25
2022-12-11T09:02:11.076Z,85.01
2022-12-11T09:03:12.945Z,84.42
2022-12-11T09:04:11.005Z,84.84
2022-12-11T09:05:11.204Z,84.73
2022-12-11T09:06:10.984Z,84.73
2022-12-11T09:07:10.989Z,85.15
2022-12-11T09:08:10.991Z,85.05
2022-12-11T09:09:10.950Z,85.15
2022-12-11T09:10:10.954Z,85.36
2022-12-11T09:11:10.907Z,85.15
2022-12-11T09:12:10.921Z,85.25
2022-12-11T09:13:10.916Z,85.36
2022-12-11T09:14:10.934Z,85.15
2022-12-11T09:15:11.038Z,84.94
2022-12-11T09:16:10.903Z,85.05
2022-12-11T09:17:10.848Z,85.36
2022-12-11T09:18:10.864Z,85.47
2022-12-11T09:19:10.843Z,85.47
2022-12-11T09:20:10.864Z,85.15
2022-12-11T09:21:10.890Z,85.36
2022-12-11T09:22:10.835Z,85.47
2022-12-11T09:23:10.848Z,85.57
2022-12-11T09:24:10.780Z,85.68
2022-12-11T09:25:11.167Z,85.25
2022-12-11T09:26:10.784Z,85.89
2022-12-11T09:27:10.757Z,86.20
2022-12-11T09:28:10.741Z,85.95
2022-12-11T09:29:10.765Z,85.85
2022-12-11T09:30:10.756Z,85.64
2022-12-11T09:31:10.780Z,85.42
2022-12-11T09:32:10.740Z,85.28
2022-12-11T09:33:10.714Z,85.08
2022-12-11T09:34:10.709Z,85.01
2022-12-11T09:35:10.828Z,85.22
2022-12-11T09:36:10.746Z,85.64
2022-12-11T09:37:10.674Z,85.85
2022-12-11T09:38:10.659Z,86.27
2022-12-11T09:39:10.646Z,86.30
2022-12-11T09:40:10.676Z,86.83
2022-12-11T09:41:10.756Z,86.94
2022-12-11T09:42:10.641Z,86.94
2022-12-11T09:43:10.609Z,86.83
2022-12-11T09:44:10.623Z,86.90
2022-12-11T09:45:10.888Z,86.47
2022-12-11T09:46:10.607Z,86.79
2022-12-11T09:47:10.576Z,86.69
2022-12-11T09:48:10.565Z,86.33
2022-12-11T09:49:10.554Z,86.06
2022-12-11T09:50:10.571Z,86.06
2022-12-11T09:51:10.530Z,86.58
2022-12-11T09:52:10.536Z,86.37
2022-12-11T09:53:10.517Z,86.52
2022-12-11T09:54:10.513Z,86.62
2022-12-11T09:55:10.689Z,87.04
2022-12-11T09:56:10.479Z,87.21
2022-12-11T09:57:10.540Z,86.83
2022-12-11T09:58:10.466Z,87.11
2022-12-11T09:59:10.466Z,86.90
2022-12-11T10:00:10.537Z,86.69
2022-12-11T10:01:10.503Z,86.83
2022-12-11T10:02:10.480Z,87.15
2022-12-11T10:03:10.428Z,87.36
2022-12-11T10:04:10.406Z,87.36
2022-12-11T10:05:10.663Z,87.25
2022-12-11T10:06:10.418Z,87.46
2022-12-11T10:07:10.456Z,87.63
2022-12-11T10:08:10.424Z,87.42
2022-12-11T10:09:10.388Z,87.00
2022-12-11T10:10:10.378Z,87.21
2022-12-11T10:11:10.349Z,87.21
2022-12-11T10:12:10.341Z,87.32
2022-12-11T10:13:10.355Z,87.00
2022-12-11T10:14:10.317Z,87.00
2022-12-11T10:15:10.724Z,87.15
2022-12-11T10:16:10.350Z,87.52
2022-12-11T10:17:10.278Z,87.21
2022-12-11T10:18:10.268Z,87.21
2022-12-11T10:19:10.292Z,87.21
2022-12-11T10:20:10.279Z,86.90
2022-12-11T10:21:10.250Z,86.79
2022-12-11T10:22:10.212Z,86.79
2022-12-11T10:23:10.217Z,86.65
2022-12-11T10:24:10.280Z,86.65
2022-12-11T10:25:23.678Z,86.86
2022-12-11T10:26:11.183Z,87.07
2022-12-11T10:27:10.251Z,86.65
2022-12-11T10:28:10.340Z,86.33
2022-12-11T10:29:10.325Z,86.54
2022-12-11T10:30:10.180Z,86.51
2022-12-11T10:31:10.180Z,86.51
2022-12-11T10:32:10.199Z,86.29
2022-12-11T10:33:10.120Z,86.08
2022-12-11T10:34:10.109Z,85.77
2022-12-11T10:35:10.383Z,85.56
2022-12-11T10:36:10.112Z,85.56
2022-12-11T10:37:10.082Z,85.91
2022-12-11T10:38:10.104Z,86.33
2022-12-11T10:39:10.070Z,86.65
2022-12-11T10:40:10.101Z,86.54
2022-12-11T10:41:10.060Z,86.54
2022-12-11T10:42:10.019Z,86.76
2022-12-11T10:43:10.052Z,86.65
2022-12-11T10:44:10.024Z,86.54
2022-12-11T10:45:10.488Z,86.65
2022-12-11T10:46:10.066Z,86.65
2022-12-11T10:47:10.001Z,86.69
2022-12-11T10:48:09.974Z,87.52
2022-12-11T10:49:09.951Z,88.16
2022-12-11T10:50:09.942Z,88.16
2022-12-11T10:51:09.961Z,87.95
2022-12-11T10:52:09.950Z,88.05
2022-12-11T10:53:09.931Z,88.26
2022-12-11T10:54:09.901Z,88.26
2022-12-11T10:55:10.187Z,88.16
2022-12-11T10:56:09.921Z,88.16
2022-12-11T10:57:09.893Z,88.05
2022-12-11T10:58:09.871Z,88.26
2022-12-11T10:59:09.870Z,88.37
2022-12-11T11:00:09.861Z,88.05
2022-12-11T11:01:09.880Z,88.26
2022-12-11T11:02:09.858Z,88.37
2022-12-11T11:03:09.862Z,88.47
2022-12-11T11:04:09.833Z,88.37
2022-12-11T11:05:10.270Z,88.47
2022-12-11T11:06:09.832Z,88.68
2022-12-11T11:07:09.845Z,88.54
2022-12-11T11:08:09.856Z,88.43
2022-12-11T11:09:09.761Z,88.07
2022-12-11T11:10:09.782Z,87.17
2022-12-11T11:11:09.775Z,87.17
2022-12-11T11:12:09.723Z,87.59
2022-12-11T11:13:09.736Z,87.70
2022-12-11T11:14:09.732Z,87.80
2022-12-11T11:15:10.069Z,87.80
2022-12-11T11:16:09.791Z,87.70
2022-12-11T11:17:09.732Z,87.28
2022-12-11T11:18:09.682Z,87.13
2022-12-11T11:19:09.702Z,87.13
2022-12-11T11:20:09.707Z,86.92
2022-12-11T11:21:09.673Z,87.03
2022-12-11T11:22:09.634Z,87.07
2022-12-11T11:23:09.669Z,87.49
2022-12-11T11:24:09.611Z,87.49
2022-12-11T11:25:09.948Z,87.49
2022-12-11T11:26:09.633Z,87.59
2022-12-11T11:27:13.683Z,87.91
2022-12-11T11:28:09.596Z,87.95
2022-12-11T11:29:09.617Z,88.26
2022-12-11T11:30:09.619Z,88.26
2022-12-11T11:31:09.591Z,88.32
2022-12-11T11:32:09.549Z,88.43
2022-12-11T11:33:09.564Z,88.32
2022-12-11T11:34:09.523Z,88.43
2022-12-11T11:35:09.784Z,88.12
2022-12-11T11:36:09.496Z,87.91
2022-12-11T11:37:09.490Z,87.91
2022-12-11T11:38:09.486Z,87.59
2022-12-11T11:39:09.483Z,88.01
2022-12-11T11:40:09.468Z,88.01
2022-12-11T11:41:14.685Z,88.01
2022-12-11T11:42:10.454Z,87.80
2022-12-11T11:43:09.413Z,88.22
2022-12-11T11:44:09.427Z,88.22
2022-12-11T11:45:09.828Z,88.32
2022-12-11T11:46:09.434Z,88.22
2022-12-11T11:47:09.488Z,88.43
2022-12-11T11:48:11.470Z,88.43
2022-12-11T11:49:09.376Z,88.54
2022-12-11T11:50:09.357Z,88.32
2022-12-11T11:51:09.415Z,88.43
2022-12-11T11:52:09.345Z,88.54
2022-12-11T11:53:09.350Z,88.54
2022-12-11T11:54:09.327Z,88.32
2022-12-11T11:55:10.080Z,88.64
2022-12-11T11:56:09.297Z,88.64
2022-12-11T11:57:09.284Z,88.49
2022-12-11T11:58:09.302Z,88.39
2022-12-11T11:59:09.287Z,88.18
2022-12-11T12:00:09.254Z,88.49
2022-12-11T12:01:09.269Z,88.49
2022-12-11T12:02:09.237Z,88.29
2022-12-11T12:03:09.276Z,88.54
2022-12-11T12:04:09.242Z,88.64
2022-12-11T12:05:09.636Z,88.71
2022-12-11T12:06:14.763Z,88.43
2022-12-11T12:07:10.195Z,88.85
2022-12-11T12:08:09.237Z,88.92
2022-12-11T12:09:09.196Z,88.92
2022-12-11T12:10:09.249Z,88.81
2022-12-11T12:11:09.155Z,88.39
2022-12-11T12:12:09.157Z,87.97
2022-12-11T12:13:30.191Z,88.18
2022-12-11T12:14:29.184Z,88.39
2022-12-11T12:15:10.501Z,88.29
2022-12-11T12:16:29.202Z,88.29
2022-12-11T12:17:10.180Z,88.60
2022-12-11T12:18:09.086Z,88.60
2022-12-11T12:19:09.098Z,88.49
2022-12-11T12:20:09.100Z,88.60
2022-12-11T12:21:09.036Z,88.46
2022-12-11T12:22:09.042Z,88.14
2022-12-11T12:23:09.049Z,88.14
2022-12-11T12:24:09.034Z,88.35
2022-12-11T12:25:09.404Z,88.14
2022-12-11T12:26:09.000Z,88.18
2022-12-11T12:27:29.148Z,88.24
2022-12-11T12:28:10.000Z,88.29
2022-12-11T12:29:08.967Z,88.18
2022-12-11T12:30:08.963Z,88.24
2022-12-11T12:31:09.047Z,88.14
2022-12-11T12:32:08.939Z,88.04
2022-12-11T12:33:08.948Z,87.97
2022-12-11T12:34:08.937Z,88.39
2022-12-11T12:35:09.303Z,88.29
2022-12-11T12:36:08.939Z,88.46
2022-12-11T12:37:08.881Z,88.24
2022-12-11T12:38:08.869Z,88.04
2022-12-11T12:39:08.864Z,88.04
2022-12-11T12:40:08.859Z,88.24
2022-12-11T12:41:08.873Z,88.24
2022-12-11T12:42:08.828Z,88.04
2022-12-11T12:43:08.869Z,88.14
2022-12-11T12:44:08.905Z,88.14
2022-12-11T12:45:09.020Z,88.14
2022-12-11T12:46:08.878Z,88.14
2022-12-11T12:47:08.779Z,88.24
2022-12-11T12:48:08.779Z,88.24
2022-12-11T12:49:08.759Z,88.35
2022-12-11T12:50:08.843Z,88.24
2022-12-11T12:51:08.739Z,88.24
2022-12-11T12:52:08.752Z,88.24